createdAt,value
2022-11-13T00:02:48.827Z,34.63
2022-11-13T00:07:58.366Z,34.90
2022-11-13T00:13:07.189Z,35.38
2022-11-13T00:18:22.373Z,35.00
2022-11-13T00:23:38.581Z,32.50
2022-11-13T00:28:57.050Z,34.63
2022-11-13T00:34:41.129Z,30.33
2022-11-13T00:39:40.871Z,28.87
2022-11-13T00:44:50.423Z,27.35
2022-11-13T00:50:01.674Z,31.20
2022-11-13T00:55:10.935Z,28.02
2022-11-13T01:00:20.502Z,27.92
2022-11-13T01:05:31.899Z,27.10
2022-11-13T01:10:45.586Z,25.20
2022-11-13T01:15:56.152Z,24.83
2022-11-13T01:21:13.562Z,22.88
2022-11-13T01:26:24.391Z,23.40
2022-11-13T01:31:33.810Z,22.13
2022-11-13T01:36:45.170Z,20.38
2022-11-13T01:41:54.837Z,19.23
2022-11-13T01:47:03.786Z,18.02
2022-11-13T01:52:18.510Z,18.37
2022-11-13T01:57:28.084Z,16.40
2022-11-13T02:02:36.818Z,15.82
2022-11-13T02:07:48.528Z,16.20
2022-11-13T02:12:57.798Z,16.52
2022-11-13T02:18:08.761Z,14.90
2022-11-13T02:23:25.605Z,15.23
2022-11-13T02:28:36.549Z,15.55
2022-11-13T02:33:45.325Z,15.03
2022-11-13T02:38:55.274Z,15.20
2022-11-13T02:44:06.482Z,14.27
2022-11-13T02:49:15.780Z,14.70
2022-11-13T02:54:25.376Z,14.05
2022-11-13T02:59:37.182Z,14.77
2022-11-13T03:05:11.514Z,14.40
2022-11-13T03:10:17.219Z,14.88
2022-11-13T03:15:28.566Z,14.93
2022-11-13T03:20:43.083Z,14.25
2022-11-13T03:25:54.650Z,14.70
2022-11-13T03:31:09.914Z,13.82
2022-11-13T03:36:20.498Z,14.93
2022-11-13T03:41:29.163Z,15.15
2022-11-13T03:46:40.903Z,14.30
2022-11-13T03:51:50.153Z,13.85
2022-11-13T03:56:59.181Z,16.77
2022-11-13T04:02:10.902Z,13.30
2022-11-13T04:07:20.029Z,12.77
2022-11-13T04:12:29.379Z,14.27
2022-11-13T04:17:41.088Z,14.52
2022-11-13T04:22:50.074Z,14.07
2022-11-13T04:27:58.902Z,14.80
2022-11-13T04:33:10.459Z,14.10
2022-11-13T04:38:19.641Z,15.40
2022-11-13T04:43:28.318Z,13.98
2022-11-13T04:48:39.420Z,13.15
2022-11-13T04:53:47.690Z,15.43
2022-11-13T04:58:56.517Z,14.95
2022-11-13T05:04:09.015Z,15.20
2022-11-13T05:09:18.180Z,14.25
2022-11-13T05:14:26.947Z,14.15
2022-11-13T05:19:38.794Z,13.82
2022-11-13T05:24:48.287Z,14.73
2022-11-13T05:29:56.808Z,13.80
2022-11-13T05:35:08.825Z,14.85
2022-11-13T05:40:17.708Z,14.23
2022-11-13T05:45:26.624Z,13.60
2022-11-13T05:50:38.109Z,15.20
2022-11-13T05:55:46.707Z,13.82
2022-11-13T06:00:55.192Z,14.05
2022-11-13T06:06:09.150Z,16.02
2022-11-13T06:11:20.756Z,14.00
2022-11-13T06:16:31.479Z,13.63
2022-11-13T06:21:45.133Z,14.13
2022-11-13T06:26:54.263Z,14.93
2022-11-13T06:32:03.796Z,13.23
2022-11-13T06:37:15.119Z,12.23
2022-11-13T06:42:23.689Z,13.40
2022-11-13T06:47:32.347Z,13.35
2022-11-13T06:52:43.275Z,14.27
2022-11-13T06:57:52.127Z,13.13
2022-11-13T07:03:03.064Z,12.63
2022-11-13T07:08:14.738Z,12.93
2022-11-13T07:13:23.660Z,13.20
2022-11-13T07:18:35.712Z,12.68
2022-11-13T07:23:47.768Z,11.23
2022-11-13T07:28:56.475Z,10.50
2022-11-13T07:34:06.303Z,10.47
2022-11-13T07:39:22.162Z,10.82
2022-11-13T07:44:53.393Z,11.25
2022-11-13T07:50:08.220Z,9.70
2022-11-13T07:55:24.548Z,11.50
2022-11-13T08:00:36.813Z,10.77
2022-11-13T08:05:47.778Z,11.10
2022-11-13T08:10:59.502Z,10.25
2022-11-13T08:16:09.202Z,10.25
2022-11-13T08:21:18.826Z,10.95
2022-11-13T08:26:30.953Z,11.15
2022-11-13T08:31:40.801Z,10.67
2022-11-13T08:36:52.117Z,11.17
2022-11-13T08:42:05.116Z,11.15
2022-11-13T08:47:14.127Z,10.70
2022-11-13T08:52:23.499Z,10.15
2022-11-13T08:57:35.240Z,11.40
2022-11-13T09:02:45.189Z,10.00
2022-11-13T09:07:56.279Z,10.80
2022-11-13T09:13:09.821Z,10.07
2022-11-13T09:18:18.928Z,10.50
2022-11-13T09:23:28.931Z,9.90
2022-11-13T09:28:41.154Z,9.55
2022-11-13T09:33:50.072Z,8.73
2022-11-13T09:38:58.718Z,8.98
2022-11-13T09:44:19.493Z,9.13
2022-11-13T09:49:31.921Z,7.35
2022-11-13T09:54:41.729Z,7.20
2022-11-13T14:39:26.989Z,6.95
2022-11-13T14:44:39.757Z,7.15
2022-11-13T14:49:49.498Z,6.68
2022-11-13T14:55:15.734Z,7.80
2022-11-13T15:00:34.525Z,6.43
2022-11-13T15:05:45.991Z,7.22
2022-11-13T15:10:59.933Z,7.23
2022-11-13T15:16:20.321Z,10.25
2022-11-13T15:21:36.465Z,7.03
2022-11-13T15:26:48.239Z,7.40
2022-11-13T15:32:06.387Z,7.53
2022-11-13T15:37:25.861Z,8.15
2022-11-13T15:42:41.220Z,7.32
2022-11-13T15:48:01.523Z,8.45
